OTP weather

Henri Coandă International Airport
Bucharest, Bucureşti, Romania

Public forecast

Using degrees Celsius for public forecast. Weather courtesy of forecast.io.

METAR (pilot weather report)

Retrieved 2018/10/18 22:30 UTC (25 minutes ago):

LROP 182230Z 30002KT 7000 SCT033 13/12 Q1018 R88/19//95 NOSIG

TAF (pilot weather forecast)

Retrieved 2018/10/18 18:33 UTC (4 hours ago):

TAF LROP 181700Z 1818/1918 VRB04KT CAVOK TEMPO 1818/1821 FEW035CB BKN040 PROB30 TEMPO 1818/1821 5000 -SHRA TEMPO 1900/1905 5000 BR BKN010